Blanchard Township, Maine
Current Conditions -  °F | °C
As of 7:16 PM on Sunday 23 Nov 2014 (Local Time) from KMLT Reporting Station
Overcast Overcast  
Wind Chill:   Ceiling: 3300
Heat Index:   Visibility: 10mi
Dew Point:   Wind: 3mph
Humidity: 86%   Direction: 100°E
Pressure: 30.13"   Gusts: NA
Location:  45.3122°N, 69.5439°W
Report Text: KMLT 240016Z AUTO 10003KT 10SM SCT027 OVC033 03/01 A3013 RMK AO2 T00280006
Loading
Personal Weather Stations






























Interactive Weather Map New forecast layout! Learn more

10-Day Weather Forecast

Advertisements
Track Severe Weather on mobile